Sheffield Lake, Ohio
Current Conditions -  °F | °C
As of 1:53 AM on Saturday 29 Nov 2014 (Local Time) from KLPR Reporting Station
Broken Clouds Broken Clouds  
Wind Chill: 19°   Ceiling: 10000
Heat Index: 29°   Visibility: 10mi
Dew Point: 20°   Wind: 12mph
Humidity: 69%   Direction: 180°S
Pressure: 30.09"   Gusts: NA
Location:  41.49°N, 82.09°W
Report Text: KLPR 290653Z AUTO 18010KT 10SM BKN100 M02/M07 A3009 RMK AO2 SLP199 T10171067 TSNO
Loading
Personal Weather Stations






























Interactive Weather Map New forecast layout! Learn more

10-Day Weather Forecast

Advertisements
Track Severe Weather on mobile